SVA74L LOWW-WMKK
Flight info
| Callsign | SVA74L |
|---|---|
| Flight time | N/A |
| Altitude | 35000 |
| Route | ADAMA2C/29 ADAMA Z648 VEDER L140 ALAMU DCT EPARI DCT NARKA DCT ATSOS DCT SOBSA DCT RIVOS DCT UDROS UM859 KARDE UN644 ROLIN N644 LAGAS M747 SUBUT T923 ERLEV M11 RODAR A909 BIBIM/N0485F370 A909 NINOP B475 DAVET P173 TAPIS M875 SITAX A466 DI M875 LAPAN/N0488F390 M875 KAKID M770 OBMOG L515 PUT B579 VPL Y503 RINBA Y507 KAKAK KAKAK3K |
| Aircraft | A35K/H-SDE2E3GHIJ3J4J5LM1ORWXY/LB1D1 |
Departure
| Time | 2026-04-25 20:01 |
|---|---|
| Airport | Vienna International Airport (LOWW) |
Arrival
| Time | N/A |
|---|---|
| Airport | Kuala Lumpur International Airport (WMKK) |
| Time | Latitude | Longitude | Altitude | Speed | Heading |
|---|---|---|---|---|---|
| 2026-04-25 19:30 | 48.11754 | 16.56113 | 619 ft | 0 kts | 22° |
| 2026-04-25 19:47 | 48.11746 | 16.56109 | 622 ft | 5 kts | 21° |
| 2026-04-25 19:47 | 48.11716 | 16.56089 | 622 ft | 4 kts | 28° |
| 2026-04-25 19:47 | 48.11701 | 16.56073 | 623 ft | 2 kts | 69° |
| 2026-04-25 19:47 | 48.11700 | 16.56057 | 623 ft | 2 kts | 107° |
| 2026-04-25 19:48 | 48.11704 | 16.56041 | 623 ft | 2 kts | 115° |
| 2026-04-25 19:48 | 48.11707 | 16.56029 | 623 ft | 0 kts | 116° |
| 2026-04-25 19:52 | 48.11706 | 16.56035 | 623 ft | 2 kts | 116° |
| 2026-04-25 19:52 | 48.11692 | 16.56075 | 623 ft | 8 kts | 116° |
| 2026-04-25 19:53 | 48.11655 | 16.56158 | 619 ft | 10 kts | 149° |
| 2026-04-25 19:53 | 48.11580 | 16.56196 | 610 ft | 12 kts | 147° |
| 2026-04-25 19:53 | 48.11525 | 16.56311 | 623 ft | 16 kts | 115° |
| 2026-04-25 19:53 | 48.11472 | 16.56471 | 620 ft | 18 kts | 116° |
| 2026-04-25 19:54 | 48.11419 | 16.56632 | 617 ft | 17 kts | 116° |
| 2026-04-25 19:54 | 48.11368 | 16.56790 | 624 ft | 17 kts | 115° |
| 2026-04-25 19:54 | 48.11321 | 16.56933 | 617 ft | 14 kts | 115° |
| 2026-04-25 19:54 | 48.11293 | 16.57022 | 627 ft | 14 kts | 116° |
| 2026-04-25 19:55 | 48.11232 | 16.57210 | 626 ft | 15 kts | 116° |
| 2026-04-25 19:55 | 48.11183 | 16.57356 | 624 ft | 17 kts | 116° |
| 2026-04-25 19:55 | 48.11132 | 16.57516 | 621 ft | 13 kts | 115° |
| 2026-04-25 19:55 | 48.11097 | 16.57614 | 625 ft | 9 kts | 131° |
| 2026-04-25 19:56 | 48.11052 | 16.57633 | 615 ft | 4 kts | 184° |
| 2026-04-25 19:56 | 48.11041 | 16.57629 | 611 ft | 0 kts | 193° |
| 2026-04-25 19:58 | 48.11036 | 16.57628 | 613 ft | 3 kts | 193° |
| 2026-04-25 19:58 | 48.10982 | 16.57598 | 622 ft | 13 kts | 204° |
| 2026-04-25 19:59 | 48.10934 | 16.57515 | 616 ft | 10 kts | 263° |
| 2026-04-25 19:59 | 48.10946 | 16.57436 | 622 ft | 0 kts | 293° |
| 2026-04-25 20:00 | 48.10952 | 16.57417 | 618 ft | 11 kts | 294° |
| 2026-04-25 20:00 | 48.11077 | 16.57033 | 629 ft | 71 kts | 296° |
| 2026-04-25 20:01 | 48.11841 | 16.54690 | 643 ft | 171 kts | 296° |
| 2026-04-25 20:01 | 48.12399 | 16.53026 | 1076 ft | 181 kts | 296° |
| 2026-04-25 20:01 | 48.12525 | 16.51235 | 1754 ft | 181 kts | 248° |
| 2026-04-25 20:02 | 48.11495 | 16.50030 | 2307 ft | 204 kts | 205° |
| 2026-04-25 20:02 | 48.10032 | 16.49821 | 2708 ft | 219 kts | 182° |
| 2026-04-25 20:02 | 48.08474 | 16.49955 | 3041 ft | 228 kts | 182° |
| 2026-04-25 20:02 | 48.06909 | 16.49683 | 3398 ft | 230 kts | 194° |
| 2026-04-25 20:03 | 48.05327 | 16.49382 | 3959 ft | 228 kts | 184° |
| 2026-04-25 20:03 | 48.03772 | 16.49966 | 4425 ft | 239 kts | 156° |
| 2026-04-25 20:03 | 48.02297 | 16.51279 | 4654 ft | 254 kts | 147° |
| 2026-04-25 20:03 | 48.00787 | 16.52794 | 4922 ft | 271 kts | 147° |
| 2026-04-25 20:04 | 47.99180 | 16.54382 | 5314 ft | 282 kts | 147° |
| 2026-04-25 20:04 | 47.97657 | 16.56251 | 5942 ft | 285 kts | 131° |
| 2026-04-25 20:04 | 47.96643 | 16.58779 | 6589 ft | 285 kts | 106° |
| 2026-04-25 20:04 | 47.96412 | 16.61703 | 7215 ft | 286 kts | 88° |
| 2026-04-25 20:05 | 47.96478 | 16.64698 | 7793 ft | 292 kts | 85° |
| 2026-04-25 20:05 | 47.96597 | 16.67733 | 8156 ft | 294 kts | 84° |
| 2026-04-25 20:05 | 47.96723 | 16.70794 | 8823 ft | 295 kts | 85° |
| 2026-04-25 20:05 | 47.96842 | 16.73842 | 9614 ft | 293 kts | 85° |
| 2026-04-25 20:06 | 47.96956 | 16.76912 | 10153 ft | 302 kts | 85° |
| 2026-04-25 20:06 | 47.97071 | 16.80091 | 10438 ft | 319 kts | 85° |
| 2026-04-25 20:06 | 47.97189 | 16.83484 | 10723 ft | 336 kts | 85° |
| 2026-04-25 20:06 | 47.97310 | 16.87048 | 11012 ft | 352 kts | 85° |
| 2026-04-25 20:07 | 47.97435 | 16.90782 | 11294 ft | 368 kts | 85° |
| 2026-04-25 20:07 | 47.97563 | 16.94681 | 11585 ft | 383 kts | 85° |
| 2026-04-25 20:07 | 47.97698 | 16.98719 | 11864 ft | 397 kts | 84° |
| 2026-04-25 20:07 | 47.97875 | 17.02895 | 12187 ft | 409 kts | 84° |
| 2026-04-25 20:08 | 47.98062 | 17.07160 | 12655 ft | 415 kts | 82° |
| 2026-04-25 20:08 | 47.98255 | 17.11492 | 13164 ft | 420 kts | 83° |
| 2026-04-25 20:08 | 47.98428 | 17.15875 | 13708 ft | 425 kts | 83° |
| 2026-04-25 20:08 | 47.98584 | 17.20302 | 14205 ft | 429 kts | 83° |
| 2026-04-25 20:09 | 47.98730 | 17.24750 | 14726 ft | 432 kts | 84° |
| 2026-04-25 20:09 | 47.98870 | 17.29266 | 15270 ft | 435 kts | 84° |
| 2026-04-25 20:09 | 47.98819 | 17.33749 | 15721 ft | 442 kts | 94° |
| 2026-04-25 20:09 | 47.98236 | 17.38254 | 16293 ft | 444 kts | 101° |
| 2026-04-25 20:10 | 47.97433 | 17.42743 | 16818 ft | 447 kts | 104° |
| 2026-04-25 20:10 | 47.96509 | 17.47197 | 17323 ft | 451 kts | 106° |
| 2026-04-25 20:10 | 47.95520 | 17.51645 | 17823 ft | 454 kts | 107° |
| 2026-04-25 20:10 | 47.94498 | 17.56133 | 18315 ft | 458 kts | 107° |
| 2026-04-25 20:11 | 47.93470 | 17.60645 | 18737 ft | 461 kts | 107° |
| 2026-04-25 20:11 | 47.92439 | 17.65202 | 19188 ft | 465 kts | 107° |
| 2026-04-25 20:11 | 47.91412 | 17.69782 | 19638 ft | 468 kts | 107° |
| 2026-04-25 20:11 | 47.90382 | 17.74400 | 20106 ft | 471 kts | 107° |
| 2026-04-25 20:12 | 47.89363 | 17.78986 | 20599 ft | 474 kts | 107° |
| 2026-04-25 20:12 | 47.88325 | 17.83657 | 21076 ft | 477 kts | 107° |
| 2026-04-25 20:12 | 47.87277 | 17.88366 | 21571 ft | 480 kts | 107° |
| 2026-04-25 20:12 | 47.86920 | 17.89971 | 21730 ft | 481 kts | 107° |
| 2026-04-25 20:13 | 47.85117 | 17.97702 | 22483 ft | 487 kts | 111° |
| 2026-04-25 20:13 | 47.83780 | 18.02351 | 22994 ft | 489 kts | 113° |
| 2026-04-25 20:13 | 47.82386 | 18.06986 | 23474 ft | 492 kts | 114° |
| 2026-04-25 20:13 | 47.80952 | 18.11621 | 23866 ft | 495 kts | 114° |
| 2026-04-25 20:14 | 47.79490 | 18.16280 | 24234 ft | 499 kts | 114° |
| 2026-04-25 20:14 | 47.78012 | 18.20960 | 24607 ft | 502 kts | 114° |
| 2026-04-25 20:14 | 47.76521 | 18.25679 | 24974 ft | 506 kts | 114° |
| 2026-04-25 20:14 | 47.75116 | 18.30490 | 25371 ft | 509 kts | 109° |
| 2026-04-25 20:15 | 47.74125 | 18.35544 | 25744 ft | 513 kts | 99° |
| 2026-04-25 20:15 | 47.73522 | 18.40796 | 26055 ft | 518 kts | 96° |
| 2026-04-25 20:15 | 47.73054 | 18.46118 | 26423 ft | 521 kts | 94° |
| 2026-04-25 20:15 | 47.72654 | 18.51468 | 26779 ft | 524 kts | 93° |
| 2026-04-25 20:16 | 47.72274 | 18.56867 | 27144 ft | 526 kts | 93° |
| 2026-04-25 20:16 | 47.71897 | 18.62221 | 27500 ft | 529 kts | 93° |
| 2026-04-25 20:16 | 47.71501 | 18.67689 | 27808 ft | 533 kts | 93° |
| 2026-04-25 20:16 | 47.71089 | 18.73168 | 28154 ft | 536 kts | 94° |
| 2026-04-25 20:17 | 47.70663 | 18.78685 | 28480 ft | 539 kts | 94° |
| 2026-04-25 20:17 | 47.70228 | 18.84223 | 28792 ft | 542 kts | 94° |
| 2026-04-25 20:17 | 47.69782 | 18.89807 | 29194 ft | 542 kts | 94° |
| 2026-04-25 20:17 | 47.69341 | 18.95291 | 29633 ft | 542 kts | 94° |
| 2026-04-25 20:18 | 47.68875 | 19.00920 | 29973 ft | 543 kts | 95° |
| 2026-04-25 20:18 | 47.68234 | 19.06378 | 30292 ft | 543 kts | 98° |
| 2026-04-25 20:18 | 47.67449 | 19.11845 | 30691 ft | 542 kts | 100° |
| 2026-04-25 20:18 | 47.66618 | 19.17297 | 31026 ft | 541 kts | 100° |
| 2026-04-25 20:19 | 47.65789 | 19.22742 | 31329 ft | 541 kts | 100° |
| 2026-04-25 20:19 | 47.64976 | 19.28192 | 31613 ft | 541 kts | 99° |
| 2026-04-25 20:19 | 47.64180 | 19.33646 | 31902 ft | 541 kts | 99° |
| 2026-04-25 20:19 | 47.63397 | 19.39104 | 32170 ft | 541 kts | 99° |
| 2026-04-25 20:20 | 47.62621 | 19.44565 | 32400 ft | 542 kts | 99° |
| 2026-04-25 20:20 | 47.61844 | 19.50032 | 32644 ft | 542 kts | 99° |
| 2026-04-25 20:20 | 47.61064 | 19.55502 | 32897 ft | 542 kts | 99° |
| 2026-04-25 20:20 | 47.60282 | 19.60960 | 33127 ft | 542 kts | 99° |
| 2026-04-25 20:21 | 47.59496 | 19.66430 | 33338 ft | 542 kts | 98° |
| 2026-04-25 20:21 | 47.58709 | 19.71891 | 33570 ft | 543 kts | 98° |
| 2026-04-25 20:21 | 47.57916 | 19.77373 | 33761 ft | 543 kts | 98° |
| 2026-04-25 20:21 | 47.57122 | 19.82838 | 33960 ft | 543 kts | 98° |
| 2026-04-25 20:22 | 47.56322 | 19.88318 | 34124 ft | 543 kts | 98° |
| 2026-04-25 20:22 | 47.56053 | 19.90156 | 34177 ft | 543 kts | 98° |
| 2026-04-25 20:22 | 47.54718 | 19.99225 | 34519 ft | 541 kts | 98° |
| 2026-04-25 20:22 | 47.53913 | 20.04664 | 34707 ft | 541 kts | 98° |
| 2026-04-25 20:23 | 47.53109 | 20.10091 | 34873 ft | 540 kts | 98° |
| 2026-04-25 20:23 | 47.52301 | 20.15526 | 34925 ft | 541 kts | 98° |
| 2026-04-25 20:23 | 47.50675 | 20.26396 | 34923 ft | 540 kts | 98° |
| 2026-04-25 20:24 | 47.49037 | 20.37245 | 34922 ft | 541 kts | 98° |
| 2026-04-25 20:24 | 47.47667 | 20.46259 | 34920 ft | 541 kts | 99° |
| 2026-04-25 20:25 | 47.45738 | 20.58868 | 34920 ft | 541 kts | 99° |
| 2026-04-25 20:25 | 47.44068 | 20.69712 | 34920 ft | 541 kts | 99° |
| 2026-04-25 20:26 | 47.42659 | 20.78789 | 34921 ft | 541 kts | 99° |
| 2026-04-25 20:26 | 47.40969 | 20.89621 | 34923 ft | 541 kts | 99° |
| 2026-04-25 20:27 | 47.39277 | 21.00393 | 34924 ft | 541 kts | 99° |
| 2026-04-25 20:27 | 47.37565 | 21.11221 | 34923 ft | 541 kts | 99° |
| 2026-04-25 20:28 | 47.35845 | 21.22036 | 34929 ft | 541 kts | 99° |
| 2026-04-25 20:28 | 47.34113 | 21.32839 | 34929 ft | 541 kts | 99° |
| 2026-04-25 20:29 | 47.32370 | 21.43634 | 34934 ft | 541 kts | 99° |
| 2026-04-25 20:29 | 47.30630 | 21.54373 | 34934 ft | 541 kts | 99° |
| 2026-04-25 20:30 | 47.28871 | 21.65157 | 34933 ft | 541 kts | 99° |
| 2026-04-25 20:30 | 47.27099 | 21.75931 | 34935 ft | 541 kts | 100° |
| 2026-04-25 20:31 | 47.25193 | 21.86654 | 34931 ft | 542 kts | 105° |
| 2026-04-25 20:31 | 47.22700 | 21.97136 | 34936 ft | 541 kts | 107° |
| 2026-04-25 20:32 | 47.20116 | 22.07479 | 34941 ft | 541 kts | 107° |
| 2026-04-25 20:32 | 47.17922 | 22.16157 | 34942 ft | 540 kts | 107° |
| 2026-04-25 20:33 | 47.14875 | 22.28185 | 34947 ft | 540 kts | 107° |
| 2026-04-25 20:33 | 47.12695 | 22.36778 | 34948 ft | 540 kts | 107° |
| 2026-04-25 20:34 | 47.09620 | 22.48852 | 34956 ft | 540 kts | 107° |
| 2026-04-25 20:34 | 47.06998 | 22.59098 | 34953 ft | 539 kts | 107° |
| 2026-04-25 20:35 | 47.04355 | 22.69381 | 34961 ft | 539 kts | 107° |
| 2026-04-25 20:35 | 47.01700 | 22.79659 | 34964 ft | 539 kts | 107° |
| 2026-04-25 20:36 | 46.98511 | 22.89590 | 34976 ft | 541 kts | 117° |
| 2026-04-25 20:36 | 46.94736 | 22.99069 | 34967 ft | 537 kts | 118° |
| 2026-04-25 20:37 | 46.90876 | 23.08429 | 34976 ft | 537 kts | 119° |
| 2026-04-25 20:37 | 46.87007 | 23.17772 | 34973 ft | 536 kts | 119° |
| 2026-04-25 20:38 | 46.83169 | 23.27045 | 34975 ft | 536 kts | 119° |
| 2026-04-25 20:38 | 46.79311 | 23.36356 | 34973 ft | 536 kts | 119° |
| 2026-04-25 20:39 | 46.75441 | 23.45667 | 34968 ft | 536 kts | 119° |
| 2026-04-25 20:39 | 46.72220 | 23.53392 | 34967 ft | 535 kts | 119° |
| 2026-04-25 20:40 | 46.67697 | 23.64200 | 34966 ft | 535 kts | 119° |
| 2026-04-25 20:40 | 46.63813 | 23.73447 | 34966 ft | 534 kts | 119° |
| 2026-04-25 20:41 | 46.59933 | 23.82659 | 34968 ft | 534 kts | 119° |
| 2026-04-25 20:41 | 46.56051 | 23.91846 | 34965 ft | 533 kts | 119° |
| 2026-04-25 20:42 | 46.52160 | 24.01021 | 34964 ft | 533 kts | 119° |
| 2026-04-25 20:42 | 46.48294 | 24.10106 | 34964 ft | 533 kts | 119° |
| 2026-04-25 20:43 | 46.44390 | 24.19246 | 34965 ft | 533 kts | 119° |
| 2026-04-25 20:43 | 46.40480 | 24.28368 | 34965 ft | 532 kts | 119° |
| 2026-04-25 20:44 | 46.36562 | 24.37481 | 34966 ft | 532 kts | 120° |
| 2026-04-25 20:44 | 46.32640 | 24.46576 | 34963 ft | 532 kts | 119° |
| 2026-04-25 20:45 | 46.28714 | 24.55649 | 34960 ft | 532 kts | 120° |
| 2026-04-25 20:45 | 46.24810 | 24.64644 | 34974 ft | 531 kts | 120° |
| 2026-04-25 20:46 | 46.20879 | 24.73674 | 34967 ft | 531 kts | 120° |
| 2026-04-25 20:46 | 46.16938 | 24.82694 | 34970 ft | 531 kts | 120° |
| 2026-04-25 20:47 | 46.12993 | 24.91694 | 34971 ft | 531 kts | 120° |
| 2026-04-25 20:47 | 46.09044 | 25.00675 | 34970 ft | 530 kts | 120° |
| 2026-04-25 20:48 | 46.05085 | 25.09653 | 34970 ft | 530 kts | 120° |
| 2026-04-25 20:48 | 46.00826 | 25.18327 | 34973 ft | 531 kts | 125° |
| 2026-04-25 20:49 | 45.96313 | 25.26709 | 34979 ft | 529 kts | 126° |
| 2026-04-25 20:49 | 45.91822 | 25.35099 | 34975 ft | 529 kts | 125° |
| 2026-04-25 20:50 | 45.87381 | 25.43524 | 34971 ft | 529 kts | 124° |
| 2026-04-25 20:50 | 45.82982 | 25.51905 | 34971 ft | 529 kts | 124° |
| 2026-04-25 20:51 | 45.78543 | 25.60344 | 34963 ft | 529 kts | 124° |
| 2026-04-25 20:51 | 45.74108 | 25.68741 | 34968 ft | 529 kts | 124° |
| 2026-04-25 20:52 | 45.70383 | 25.75772 | 34970 ft | 529 kts | 124° |
| 2026-04-25 20:52 | 45.65207 | 25.85512 | 34982 ft | 529 kts | 124° |
| 2026-04-25 20:53 | 45.60753 | 25.93867 | 34989 ft | 529 kts | 124° |
| 2026-04-25 20:53 | 45.56292 | 26.02211 | 34997 ft | 528 kts | 124° |
| 2026-04-25 20:54 | 45.51822 | 26.10546 | 34993 ft | 528 kts | 124° |
| 2026-04-25 20:54 | 45.47379 | 26.18806 | 34990 ft | 528 kts | 124° |
| 2026-04-25 20:55 | 45.42902 | 26.27107 | 34979 ft | 527 kts | 124° |
| 2026-04-25 20:55 | 45.38428 | 26.35379 | 34984 ft | 527 kts | 124° |
| 2026-04-25 20:56 | 45.33948 | 26.43636 | 34977 ft | 526 kts | 124° |
| 2026-04-25 20:56 | 45.29470 | 26.51866 | 34971 ft | 526 kts | 124° |
| 2026-04-25 20:57 | 45.24995 | 26.60066 | 34967 ft | 525 kts | 125° |
| 2026-04-25 20:57 | 45.20518 | 26.68246 | 34963 ft | 524 kts | 125° |
| 2026-04-25 20:58 | 45.16064 | 26.76360 | 34961 ft | 524 kts | 125° |
| 2026-04-25 20:58 | 45.11582 | 26.84503 | 34956 ft | 523 kts | 125° |
| 2026-04-25 20:59 | 45.07098 | 26.92626 | 34955 ft | 523 kts | 125° |
| 2026-04-25 20:59 | 45.02610 | 27.00733 | 34957 ft | 523 kts | 125° |
| 2026-04-25 21:00 | 44.99606 | 27.06146 | 34956 ft | 523 kts | 125° |
| 2026-04-25 21:01 | 44.91377 | 27.20924 | 34959 ft | 522 kts | 125° |
| 2026-04-25 21:01 | 44.86904 | 27.28925 | 34959 ft | 522 kts | 125° |
| 2026-04-25 21:02 | 44.82404 | 27.36951 | 34965 ft | 521 kts | 125° |
| 2026-04-25 21:02 | 44.77906 | 27.44949 | 34963 ft | 521 kts | 125° |
| 2026-04-25 21:03 | 44.73400 | 27.52941 | 34962 ft | 520 kts | 125° |
| 2026-04-25 21:03 | 44.68898 | 27.60905 | 34964 ft | 519 kts | 125° |
| 2026-04-25 21:04 | 44.64376 | 27.68840 | 34962 ft | 519 kts | 126° |
| 2026-04-25 21:04 | 44.59676 | 27.76459 | 34970 ft | 519 kts | 128° |
| 2026-04-25 21:05 | 44.54880 | 27.84019 | 34969 ft | 518 kts | 128° |
| 2026-04-25 21:05 | 44.50115 | 27.91584 | 34972 ft | 517 kts | 127° |
| 2026-04-25 21:06 | 44.45367 | 27.99168 | 34973 ft | 517 kts | 127° |
| 2026-04-25 21:06 | 44.40630 | 28.06734 | 34977 ft | 517 kts | 127° |
| 2026-04-25 21:07 | 44.35885 | 28.14289 | 34981 ft | 517 kts | 127° |
| 2026-04-25 21:07 | 44.31137 | 28.21828 | 34987 ft | 516 kts | 127° |
| 2026-04-25 21:08 | 44.26425 | 28.29286 | 34991 ft | 515 kts | 127° |
| 2026-04-25 21:08 | 44.21681 | 28.36777 | 34990 ft | 515 kts | 128° |
| 2026-04-25 21:09 | 44.14562 | 28.47978 | 34988 ft | 513 kts | 128° |
| 2026-04-25 21:09 | 44.09830 | 28.55399 | 34990 ft | 512 kts | 128° |
| 2026-04-25 21:10 | 44.05095 | 28.62807 | 34992 ft | 511 kts | 128° |
| 2026-04-25 21:10 | 44.00369 | 28.70183 | 34994 ft | 510 kts | 128° |
| 2026-04-25 21:11 | 43.95649 | 28.77529 | 34997 ft | 510 kts | 128° |
| 2026-04-25 21:11 | 43.90925 | 28.84864 | 35006 ft | 509 kts | 128° |
| 2026-04-25 21:12 | 43.86229 | 28.92134 | 35014 ft | 509 kts | 128° |
| 2026-04-25 21:12 | 43.83084 | 28.96994 | 35012 ft | 509 kts | 128° |
| 2026-04-25 21:13 | 43.76781 | 29.06707 | 35011 ft | 508 kts | 128° |
| 2026-04-25 21:13 | 43.72048 | 29.13978 | 35015 ft | 508 kts | 128° |
| 2026-04-25 21:14 | 43.67318 | 29.21228 | 35016 ft | 507 kts | 128° |
| 2026-04-25 21:14 | 43.62590 | 29.28456 | 35018 ft | 506 kts | 128° |
| 2026-04-25 21:15 | 43.57893 | 29.35618 | 35020 ft | 505 kts | 128° |
| 2026-04-25 21:15 | 43.53962 | 29.41599 | 35023 ft | 505 kts | 128° |
| 2026-04-25 21:16 | 43.49244 | 29.48758 | 35025 ft | 504 kts | 129° |
| 2026-04-25 21:16 | 43.44518 | 29.55912 | 35026 ft | 503 kts | 129° |
| 2026-04-25 21:17 | 43.39792 | 29.63050 | 35027 ft | 503 kts | 129° |
| 2026-04-25 21:17 | 43.35092 | 29.70131 | 35028 ft | 503 kts | 129° |
| 2026-04-25 21:18 | 43.30361 | 29.77240 | 35028 ft | 503 kts | 129° |
| 2026-04-25 21:18 | 43.25672 | 29.84271 | 35034 ft | 502 kts | 129° |
| 2026-04-25 21:19 | 43.20951 | 29.91329 | 35035 ft | 502 kts | 129° |
| 2026-04-25 21:19 | 43.16223 | 29.98383 | 35034 ft | 502 kts | 129° |
| 2026-04-25 21:20 | 43.12280 | 30.04251 | 35034 ft | 502 kts | 129° |
| 2026-04-25 21:20 | 43.06759 | 30.12447 | 35033 ft | 502 kts | 129° |
| 2026-04-25 21:21 | 43.02015 | 30.19471 | 35035 ft | 501 kts | 129° |
| 2026-04-25 21:21 | 42.97285 | 30.26459 | 35037 ft | 501 kts | 129° |
| 2026-04-25 21:22 | 42.92542 | 30.33447 | 35037 ft | 501 kts | 129° |
| 2026-04-25 21:22 | 42.87828 | 30.40375 | 35035 ft | 500 kts | 129° |
| 2026-04-25 21:23 | 42.83068 | 30.47355 | 35035 ft | 500 kts | 129° |
| 2026-04-25 21:23 | 42.78407 | 30.54261 | 35058 ft | 499 kts | 126° |
| 2026-04-25 21:24 | 42.74809 | 30.62243 | 35041 ft | 491 kts | 107° |
| 2026-04-25 21:24 | 42.73189 | 30.71165 | 35035 ft | 490 kts | 94° |
| 2026-04-25 21:25 | 42.72260 | 30.80421 | 35041 ft | 496 kts | 92° |
| 2026-04-25 21:25 | 42.71394 | 30.89694 | 35043 ft | 496 kts | 92° |
| 2026-04-25 21:26 | 42.70470 | 30.99010 | 35043 ft | 495 kts | 93° |
| 2026-04-25 21:26 | 42.69514 | 31.08253 | 35043 ft | 495 kts | 93° |
| 2026-04-25 21:27 | 42.68537 | 31.17534 | 35046 ft | 495 kts | 93° |
| 2026-04-25 21:27 | 42.67560 | 31.26754 | 35042 ft | 495 kts | 93° |
| 2026-04-25 21:28 | 42.66574 | 31.35997 | 35041 ft | 494 kts | 93° |
| 2026-04-25 21:28 | 42.65580 | 31.45253 | 35042 ft | 495 kts | 93° |
| 2026-04-25 21:29 | 42.64579 | 31.54512 | 35044 ft | 495 kts | 94° |
| 2026-04-25 21:29 | 42.63575 | 31.63719 | 35043 ft | 495 kts | 94° |
| 2026-04-25 21:30 | 42.62561 | 31.72950 | 35040 ft | 495 kts | 94° |
| 2026-04-25 21:30 | 42.61711 | 31.80627 | 35039 ft | 495 kts | 94° |
| 2026-04-25 21:31 | 42.60507 | 31.91425 | 35039 ft | 495 kts | 94° |
| 2026-04-25 21:31 | 42.59470 | 32.00650 | 35037 ft | 495 kts | 94° |
| 2026-04-25 21:32 | 42.58440 | 32.09875 | 35039 ft | 495 kts | 94° |
| 2026-04-25 21:32 | 42.57393 | 32.19108 | 35038 ft | 495 kts | 94° |
| 2026-04-25 21:33 | 42.56332 | 32.28314 | 35038 ft | 495 kts | 94° |
| 2026-04-25 21:33 | 42.55259 | 32.37555 | 35039 ft | 495 kts | 94° |
| 2026-04-25 21:34 | 42.54180 | 32.46804 | 35035 ft | 495 kts | 94° |
| 2026-04-25 21:34 | 42.53098 | 32.56019 | 35033 ft | 496 kts | 95° |
| 2026-04-25 21:35 | 42.52006 | 32.65250 | 35030 ft | 496 kts | 95° |
| 2026-04-25 21:35 | 42.50910 | 32.74448 | 35032 ft | 496 kts | 95° |
| 2026-04-25 21:36 | 42.49806 | 32.83651 | 35034 ft | 496 kts | 95° |
| 2026-04-25 21:36 | 42.48688 | 32.92904 | 35033 ft | 496 kts | 95° |
| 2026-04-25 21:37 | 42.47754 | 33.00580 | 35032 ft | 496 kts | 95° |
| 2026-04-25 21:37 | 42.46441 | 33.11304 | 35027 ft | 497 kts | 95° |
| 2026-04-25 21:38 | 42.45301 | 33.20554 | 35028 ft | 497 kts | 95° |
| 2026-04-25 21:38 | 42.44157 | 33.29741 | 35030 ft | 497 kts | 95° |
| 2026-04-25 21:39 | 42.43000 | 33.38977 | 35031 ft | 497 kts | 95° |
| 2026-04-25 21:39 | 42.41836 | 33.48215 | 35027 ft | 498 kts | 96° |
| 2026-04-25 21:40 | 42.40668 | 33.57416 | 35030 ft | 498 kts | 96° |
| 2026-04-25 21:40 | 42.39490 | 33.66645 | 35028 ft | 498 kts | 96° |
| 2026-04-25 21:41 | 42.38299 | 33.75909 | 35032 ft | 499 kts | 96° |
| 2026-04-25 21:41 | 42.37109 | 33.85115 | 35031 ft | 499 kts | 96° |
| 2026-04-25 21:42 | 42.35904 | 33.94380 | 35031 ft | 499 kts | 96° |
| 2026-04-25 21:42 | 42.34701 | 34.03594 | 35030 ft | 499 kts | 96° |
| 2026-04-25 21:43 | 42.33484 | 34.12857 | 35028 ft | 499 kts | 96° |
| 2026-04-25 21:43 | 42.32264 | 34.22083 | 35028 ft | 500 kts | 96° |
| 2026-04-25 21:44 | 42.31034 | 34.31321 | 35031 ft | 500 kts | 96° |
| 2026-04-25 21:45 | 42.29176 | 34.45167 | 35031 ft | 500 kts | 97° |
| 2026-04-25 21:45 | 42.27917 | 34.54460 | 35032 ft | 500 kts | 97° |
| 2026-04-25 21:46 | 42.26661 | 34.63671 | 35033 ft | 500 kts | 97° |
| 2026-04-25 21:46 | 42.25397 | 34.72884 | 35033 ft | 500 kts | 97° |
| 2026-04-25 21:47 | 42.24126 | 34.82093 | 35038 ft | 500 kts | 97° |
| 2026-04-25 21:47 | 42.22845 | 34.91296 | 35036 ft | 500 kts | 97° |
| 2026-04-25 21:48 | 42.21553 | 35.00506 | 35041 ft | 500 kts | 97° |
| 2026-04-25 21:48 | 42.20253 | 35.09730 | 35037 ft | 500 kts | 97° |
| 2026-04-25 21:49 | 42.18946 | 35.18939 | 35044 ft | 501 kts | 97° |
| 2026-04-25 21:49 | 42.17627 | 35.28189 | 35045 ft | 501 kts | 97° |
| 2026-04-25 21:50 | 42.16301 | 35.37421 | 35046 ft | 501 kts | 98° |
| 2026-04-25 21:50 | 42.14969 | 35.46656 | 35047 ft | 502 kts | 98° |
| 2026-04-25 21:51 | 42.13636 | 35.55859 | 35050 ft | 503 kts | 98° |
| 2026-04-25 21:51 | 42.12286 | 35.65123 | 35052 ft | 503 kts | 98° |
| 2026-04-25 21:52 | 42.10933 | 35.74352 | 35055 ft | 504 kts | 98° |
| 2026-04-25 21:52 | 42.09570 | 35.83588 | 35057 ft | 504 kts | 98° |
| 2026-04-25 21:53 | 42.08194 | 35.92867 | 35057 ft | 504 kts | 98° |
| 2026-04-25 21:53 | 42.06817 | 36.02096 | 35056 ft | 505 kts | 99° |
| 2026-04-25 21:54 | 42.05426 | 36.11362 | 35063 ft | 505 kts | 99° |
| 2026-04-25 21:54 | 42.04033 | 36.20589 | 35061 ft | 505 kts | 99° |
| 2026-04-25 21:55 | 42.02628 | 36.29843 | 35065 ft | 505 kts | 99° |
| 2026-04-25 21:55 | 42.01212 | 36.39120 | 35064 ft | 505 kts | 99° |
| 2026-04-25 21:56 | 41.99790 | 36.48375 | 35067 ft | 506 kts | 99° |
| 2026-04-25 21:56 | 41.98361 | 36.57630 | 35067 ft | 506 kts | 99° |
| 2026-04-25 21:57 | 41.96930 | 36.66844 | 35067 ft | 506 kts | 99° |
| 2026-04-25 21:57 | 41.95486 | 36.76089 | 35070 ft | 506 kts | 99° |
| 2026-04-25 21:58 | 41.94029 | 36.85363 | 35071 ft | 506 kts | 99° |
| 2026-04-25 21:58 | 41.92573 | 36.94581 | 35070 ft | 506 kts | 99° |
| 2026-04-25 21:59 | 41.91202 | 37.03868 | 35082 ft | 505 kts | 94° |
| 2026-04-25 21:59 | 41.90815 | 37.13255 | 35069 ft | 506 kts | 89° |
| 2026-04-25 22:00 | 41.90623 | 37.27439 | 35078 ft | 508 kts | 88° |
| 2026-04-25 22:00 | 41.90501 | 37.36883 | 35078 ft | 508 kts | 88° |
| 2026-04-25 22:01 | 41.90352 | 37.46376 | 35076 ft | 508 kts | 88° |
| 2026-04-25 22:01 | 41.90244 | 37.52660 | 35079 ft | 508 kts | 89° |
| 2026-04-25 22:02 | 41.90014 | 37.65334 | 35082 ft | 508 kts | 89° |
| 2026-04-25 22:02 | 41.89833 | 37.74816 | 35086 ft | 508 kts | 89° |
| 2026-04-25 22:03 | 41.89645 | 37.84293 | 35080 ft | 509 kts | 89° |
| 2026-04-25 22:03 | 41.89449 | 37.93776 | 35085 ft | 509 kts | 89° |
| 2026-04-25 22:04 | 41.89279 | 38.01722 | 35086 ft | 509 kts | 89° |
| 2026-04-25 22:04 | 41.89070 | 38.11161 | 35084 ft | 510 kts | 89° |
| 2026-04-25 22:05 | 41.88851 | 38.20697 | 35084 ft | 510 kts | 89° |
| 2026-04-25 22:05 | 41.88625 | 38.30209 | 35086 ft | 510 kts | 89° |
| 2026-04-25 22:06 | 41.88391 | 38.39691 | 35082 ft | 511 kts | 89° |
| 2026-04-25 22:06 | 41.88148 | 38.49211 | 35087 ft | 511 kts | 89° |
| 2026-04-25 22:07 | 41.87939 | 38.57212 | 35087 ft | 512 kts | 89° |
| 2026-04-25 22:07 | 41.87639 | 38.68311 | 35088 ft | 512 kts | 89° |
| 2026-04-25 22:08 | 41.87370 | 38.77908 | 35090 ft | 513 kts | 90° |
| 2026-04-25 22:08 | 41.87095 | 38.87461 | 35094 ft | 514 kts | 90° |
| 2026-04-25 22:09 | 41.86811 | 38.97036 | 35097 ft | 514 kts | 90° |
| 2026-04-25 22:09 | 41.86521 | 39.06582 | 35103 ft | 515 kts | 90° |
| 2026-04-25 22:10 | 41.86220 | 39.16220 | 35093 ft | 515 kts | 90° |
| 2026-04-25 22:10 | 41.85913 | 39.25773 | 35102 ft | 516 kts | 90° |
| 2026-04-25 22:11 | 41.85595 | 39.35405 | 35108 ft | 517 kts | 90° |
| 2026-04-25 22:11 | 41.85268 | 39.45091 | 35108 ft | 517 kts | 90° |
| 2026-04-25 22:12 | 41.84935 | 39.54716 | 35104 ft | 518 kts | 90° |
| 2026-04-25 22:12 | 41.84653 | 39.62710 | 35098 ft | 519 kts | 90° |
| 2026-04-25 22:13 | 41.84245 | 39.74003 | 35102 ft | 520 kts | 90° |
| 2026-04-25 22:13 | 41.83884 | 39.83745 | 35098 ft | 521 kts | 91° |
| 2026-04-25 22:14 | 41.83516 | 39.93435 | 35101 ft | 522 kts | 91° |
| 2026-04-25 22:14 | 41.83139 | 40.03169 | 35104 ft | 524 kts | 91° |
| 2026-04-25 22:15 | 41.82755 | 40.12899 | 35106 ft | 524 kts | 91° |
| 2026-04-25 22:16 | 41.82156 | 40.27593 | 35101 ft | 526 kts | 91° |
| 2026-04-25 22:16 | 41.81746 | 40.37366 | 35104 ft | 527 kts | 91° |
| 2026-04-25 22:17 | 41.81324 | 40.47223 | 35101 ft | 529 kts | 91° |
| 2026-04-25 22:17 | 41.80894 | 40.57095 | 35104 ft | 530 kts | 91° |
| 2026-04-25 22:18 | 41.80457 | 40.66932 | 35101 ft | 530 kts | 91° |
| 2026-04-25 22:18 | 41.79990 | 40.76791 | 35103 ft | 531 kts | 92° |
| 2026-04-25 22:19 | 41.79497 | 40.86659 | 35094 ft | 532 kts | 92° |
| 2026-04-25 22:19 | 41.78995 | 40.96606 | 35092 ft | 533 kts | 92° |
| 2026-04-25 22:20 | 41.78489 | 41.06518 | 35085 ft | 534 kts | 92° |
| 2026-04-25 22:20 | 41.77974 | 41.16454 | 35079 ft | 535 kts | 92° |
| 2026-04-25 22:21 | 41.77453 | 41.26344 | 35073 ft | 535 kts | 92° |
| 2026-04-25 22:21 | 41.76920 | 41.36304 | 35076 ft | 536 kts | 92° |
| 2026-04-25 22:22 | 41.76378 | 41.46268 | 35072 ft | 537 kts | 93° |
| 2026-04-25 22:22 | 41.75825 | 41.56286 | 35073 ft | 537 kts | 93° |
| 2026-04-25 22:23 | 41.75264 | 41.66268 | 35072 ft | 538 kts | 93° |
| 2026-04-25 22:23 | 41.74697 | 41.76211 | 35074 ft | 538 kts | 93° |
| 2026-04-25 22:24 | 41.74118 | 41.86234 | 35074 ft | 539 kts | 93° |
| 2026-04-25 22:24 | 41.73533 | 41.96196 | 35077 ft | 539 kts | 94° |
| 2026-04-25 22:25 | 41.72934 | 42.06211 | 35079 ft | 539 kts | 93° |
| 2026-04-25 22:25 | 41.72330 | 42.16180 | 35085 ft | 539 kts | 94° |
| 2026-04-25 22:26 | 41.71713 | 42.26213 | 35098 ft | 539 kts | 94° |
| 2026-04-25 22:26 | 41.71090 | 42.36163 | 35103 ft | 540 kts | 94° |
| 2026-04-25 22:27 | 41.70452 | 42.46228 | 35111 ft | 540 kts | 94° |
| 2026-04-25 22:27 | 41.69814 | 42.56183 | 35121 ft | 540 kts | 94° |
| 2026-04-25 22:28 | 41.69162 | 42.66224 | 35134 ft | 541 kts | 94° |
| 2026-04-25 22:28 | 41.68504 | 42.76212 | 35144 ft | 541 kts | 94° |
| 2026-04-25 22:29 | 41.67832 | 42.86283 | 35155 ft | 542 kts | 95° |
| 2026-04-25 22:29 | 41.67150 | 42.96343 | 35169 ft | 542 kts | 95° |
| 2026-04-25 22:30 | 41.66112 | 43.11363 | 35176 ft | 544 kts | 95° |
| 2026-04-25 22:30 | 41.65523 | 43.19760 | 35177 ft | 545 kts | 95° |
| 2026-04-25 22:31 | 41.64687 | 43.31500 | 35176 ft | 545 kts | 95° |
| 2026-04-25 22:31 | 41.63960 | 43.41608 | 35177 ft | 547 kts | 95° |
| 2026-04-25 22:32 | 41.63224 | 43.51740 | 35180 ft | 547 kts | 95° |
| 2026-04-25 22:32 | 41.62481 | 43.61869 | 35167 ft | 549 kts | 96° |
| 2026-04-25 22:33 | 41.61729 | 43.72038 | 35183 ft | 549 kts | 96° |
| 2026-04-25 22:33 | 41.60968 | 43.82180 | 35185 ft | 550 kts | 96° |
| 2026-04-25 22:34 | 41.60194 | 43.92361 | 35204 ft | 551 kts | 96° |
| 2026-04-25 22:34 | 41.59410 | 44.02561 | 35211 ft | 552 kts | 96° |
| 2026-04-25 22:35 | 41.58613 | 44.12793 | 35234 ft | 552 kts | 96° |
| 2026-04-25 22:35 | 41.57624 | 44.22934 | 35232 ft | 550 kts | 105° |
| 2026-04-25 22:36 | 41.55507 | 44.32653 | 35256 ft | 545 kts | 110° |
| 2026-04-25 22:36 | 41.53155 | 44.42248 | 35255 ft | 544 kts | 110° |
| 2026-04-25 22:37 | 41.50745 | 44.51835 | 35262 ft | 545 kts | 111° |
| 2026-04-25 22:37 | 41.48338 | 44.61413 | 35257 ft | 545 kts | 111° |
| 2026-04-25 22:38 | 41.45938 | 44.70987 | 35258 ft | 546 kts | 111° |
| 2026-04-25 22:38 | 41.43529 | 44.80567 | 35248 ft | 547 kts | 111° |
| 2026-04-25 22:39 | 41.41104 | 44.90166 | 35075 ft | 545 kts | 109° |
| 2026-04-25 22:39 | 41.39887 | 44.94951 | 35225 ft | 536 kts | 109° |
| 2026-04-25 22:39 | 41.38704 | 44.99614 | 35237 ft | 531 kts | 109° |
| 2026-04-25 22:40 | 41.36352 | 45.08877 | 35241 ft | 529 kts | 109° |
| 2026-04-25 22:40 | 41.33990 | 45.18134 | 35235 ft | 530 kts | 109° |
| 2026-04-25 22:41 | 41.31605 | 45.27424 | 35234 ft | 530 kts | 109° |
| 2026-04-25 22:41 | 41.29204 | 45.36743 | 35228 ft | 531 kts | 110° |
| 2026-04-25 22:42 | 41.26807 | 45.46006 | 35236 ft | 531 kts | 110° |
| 2026-04-25 22:42 | 41.24410 | 45.55241 | 35222 ft | 531 kts | 110° |
| 2026-04-25 22:43 | 41.21986 | 45.64542 | 35231 ft | 531 kts | 110° |
| 2026-04-25 22:43 | 41.19567 | 45.73770 | 35236 ft | 531 kts | 110° |
| 2026-04-25 22:44 | 41.17125 | 45.83021 | 35228 ft | 532 kts | 110° |
| 2026-04-25 22:44 | 41.14665 | 45.92310 | 35228 ft | 532 kts | 110° |
| 2026-04-25 22:45 | 41.12214 | 46.01536 | 35234 ft | 532 kts | 110° |
| 2026-04-25 22:45 | 41.09747 | 46.10784 | 35238 ft | 532 kts | 110° |
| 2026-04-25 22:46 | 41.07267 | 46.20049 | 35240 ft | 532 kts | 110° |
| 2026-04-25 22:46 | 41.04800 | 46.29234 | 35242 ft | 532 kts | 110° |
| 2026-04-25 22:47 | 41.02324 | 46.38477 | 35240 ft | 532 kts | 110° |
| 2026-04-25 22:47 | 40.99848 | 46.47747 | 35243 ft | 533 kts | 110° |
| 2026-04-25 22:48 | 40.97369 | 46.56998 | 35251 ft | 533 kts | 110° |
| 2026-04-25 22:48 | 40.94889 | 46.66200 | 35256 ft | 533 kts | 110° |
| 2026-04-25 22:49 | 40.92371 | 46.75500 | 35263 ft | 533 kts | 110° |
| 2026-04-25 22:49 | 40.90400 | 46.84913 | 35271 ft | 535 kts | 98° |
| 2026-04-25 22:50 | 40.89525 | 46.94739 | 35265 ft | 541 kts | 95° |
| 2026-04-25 22:50 | 40.88836 | 47.04652 | 35270 ft | 543 kts | 94° |
| 2026-04-25 22:51 | 40.88261 | 47.12943 | 35277 ft | 543 kts | 95° |
| 2026-04-25 22:51 | 40.87420 | 47.24460 | 35281 ft | 543 kts | 95° |
| 2026-04-25 22:52 | 40.86668 | 47.34400 | 35290 ft | 542 kts | 95° |
| 2026-04-25 22:52 | 40.86034 | 47.42651 | 35294 ft | 542 kts | 95° |
| 2026-04-25 22:53 | 40.85267 | 47.52563 | 35295 ft | 542 kts | 95° |
| 2026-04-25 22:53 | 40.84619 | 47.62499 | 35297 ft | 543 kts | 93° |
| 2026-04-25 22:54 | 40.84045 | 47.72441 | 35293 ft | 543 kts | 93° |
| 2026-04-25 22:54 | 40.83447 | 47.82395 | 35292 ft | 543 kts | 94° |
| 2026-04-25 22:55 | 40.82827 | 47.92261 | 35284 ft | 542 kts | 94° |
| 2026-04-25 22:55 | 40.82186 | 48.02213 | 35281 ft | 542 kts | 94° |
| 2026-04-25 22:56 | 40.81539 | 48.12114 | 35270 ft | 542 kts | 94° |
| 2026-04-25 22:56 | 40.80882 | 48.22040 | 35267 ft | 542 kts | 94° |
| 2026-04-25 22:57 | 40.80219 | 48.31939 | 35264 ft | 542 kts | 94° |
| 2026-04-25 22:57 | 40.79550 | 48.41815 | 35264 ft | 542 kts | 94° |
| 2026-04-25 22:58 | 40.78867 | 48.51752 | 35267 ft | 542 kts | 94° |
| 2026-04-25 22:58 | 40.78180 | 48.61643 | 35270 ft | 543 kts | 94° |
| 2026-04-25 22:59 | 40.77482 | 48.71569 | 35276 ft | 544 kts | 94° |
| 2026-04-25 22:59 | 40.76775 | 48.81500 | 35281 ft | 545 kts | 94° |
| 2026-04-25 23:00 | 40.76056 | 48.91475 | 35281 ft | 546 kts | 94° |
| 2026-04-25 23:00 | 40.75331 | 49.01398 | 35281 ft | 546 kts | 94° |
| 2026-04-25 23:01 | 40.74593 | 49.11380 | 35286 ft | 547 kts | 94° |
| 2026-04-25 23:01 | 40.73844 | 49.21387 | 35287 ft | 547 kts | 95° |
| 2026-04-25 23:02 | 40.72972 | 49.31304 | 35285 ft | 547 kts | 98° |
| 2026-04-25 23:02 | 40.71743 | 49.41213 | 35281 ft | 546 kts | 99° |
| 2026-04-25 23:03 | 40.70483 | 49.51056 | 35276 ft | 546 kts | 98° |
| 2026-04-25 23:03 | 40.69266 | 49.60903 | 35279 ft | 546 kts | 98° |
| 2026-04-25 23:04 | 40.68059 | 49.70814 | 35276 ft | 547 kts | 98° |
| 2026-04-25 23:04 | 40.66848 | 49.80734 | 35270 ft | 547 kts | 98° |
| 2026-04-25 23:05 | 40.65637 | 49.90586 | 35268 ft | 547 kts | 98° |
| 2026-04-25 23:05 | 40.64412 | 50.00456 | 35267 ft | 547 kts | 98° |
| 2026-04-25 23:06 | 40.63174 | 50.10359 | 35264 ft | 547 kts | 98° |
| 2026-04-25 23:06 | 40.61933 | 50.20212 | 35264 ft | 546 kts | 98° |
| 2026-04-25 23:07 | 40.60685 | 50.30052 | 35264 ft | 546 kts | 98° |
| 2026-04-25 23:07 | 40.59420 | 50.39957 | 35265 ft | 546 kts | 98° |
| 2026-04-25 23:08 | 40.58161 | 50.49746 | 35268 ft | 546 kts | 98° |
| 2026-04-25 23:08 | 40.56882 | 50.59620 | 35266 ft | 546 kts | 98° |
| 2026-04-25 23:09 | 40.55604 | 50.69425 | 35271 ft | 546 kts | 98° |
| 2026-04-25 23:09 | 40.54311 | 50.79273 | 35274 ft | 545 kts | 99° |
| 2026-04-25 23:10 | 40.53010 | 50.89114 | 35277 ft | 545 kts | 99° |
| 2026-04-25 23:10 | 40.51819 | 50.98945 | 35278 ft | 545 kts | 96° |
| 2026-04-25 23:11 | 40.50974 | 51.08848 | 35276 ft | 546 kts | 94° |
| 2026-04-25 23:11 | 40.50158 | 51.18711 | 35277 ft | 546 kts | 95° |
| 2026-04-25 23:12 | 40.49276 | 51.28607 | 35278 ft | 546 kts | 95° |
| 2026-04-25 23:12 | 40.48349 | 51.38545 | 35277 ft | 546 kts | 95° |
| 2026-04-25 23:13 | 40.47394 | 51.48406 | 35256 ft | 545 kts | 98° |
| 2026-04-25 23:13 | 40.45796 | 51.58115 | 35276 ft | 544 kts | 102° |
| 2026-04-25 23:14 | 40.44046 | 51.67766 | 35273 ft | 542 kts | 103° |
| 2026-04-25 23:14 | 40.42271 | 51.77348 | 35279 ft | 542 kts | 103° |
| 2026-04-25 23:15 | 40.40486 | 51.86970 | 35274 ft | 541 kts | 103° |
| 2026-04-25 23:15 | 40.38705 | 51.96552 | 35268 ft | 541 kts | 103° |
| 2026-04-25 23:16 | 40.36918 | 52.06137 | 35269 ft | 541 kts | 103° |
| 2026-04-25 23:16 | 40.35126 | 52.15700 | 35267 ft | 540 kts | 103° |
| 2026-04-25 23:17 | 40.33328 | 52.25248 | 35266 ft | 540 kts | 103° |
| 2026-04-25 23:17 | 40.31521 | 52.34800 | 35266 ft | 540 kts | 103° |
| 2026-04-25 23:18 | 40.29713 | 52.44305 | 35262 ft | 539 kts | 104° |
| 2026-04-25 23:18 | 40.27895 | 52.53815 | 35258 ft | 539 kts | 104° |
| 2026-04-25 23:19 | 40.26071 | 52.63323 | 35255 ft | 539 kts | 104° |
| 2026-04-25 23:19 | 40.24237 | 52.72858 | 35249 ft | 539 kts | 104° |
| 2026-04-25 23:20 | 40.22398 | 52.82380 | 35246 ft | 539 kts | 104° |
| 2026-04-25 23:20 | 40.20561 | 52.91839 | 35241 ft | 538 kts | 104° |
| 2026-04-25 23:21 | 40.18710 | 53.01328 | 35238 ft | 538 kts | 104° |
| 2026-04-25 23:21 | 40.16852 | 53.10805 | 35241 ft | 538 kts | 104° |
| 2026-04-25 23:22 | 40.14991 | 53.20253 | 35242 ft | 538 kts | 104° |
| 2026-04-25 23:23 | 40.12178 | 53.34451 | 35242 ft | 537 kts | 104° |
| 2026-04-25 23:23 | 40.10294 | 53.43903 | 35246 ft | 537 kts | 104° |
| 2026-04-25 23:24 | 40.08405 | 53.53340 | 35238 ft | 536 kts | 104° |
| 2026-04-25 23:24 | 40.06525 | 53.62692 | 35233 ft | 536 kts | 104° |
| 2026-04-25 23:25 | 40.04627 | 53.72086 | 35234 ft | 536 kts | 104° |
| 2026-04-25 23:25 | 40.02712 | 53.81522 | 35236 ft | 535 kts | 104° |
| 2026-04-25 23:26 | 40.00809 | 53.90861 | 35237 ft | 535 kts | 104° |
| 2026-04-25 23:26 | 39.98889 | 54.00234 | 35237 ft | 535 kts | 104° |
| 2026-04-25 23:27 | 39.96956 | 54.09629 | 35233 ft | 534 kts | 104° |
| 2026-04-25 23:27 | 39.95031 | 54.18949 | 35235 ft | 534 kts | 104° |
| 2026-04-25 23:28 | 39.93092 | 54.28292 | 35239 ft | 533 kts | 105° |
| 2026-04-25 23:28 | 39.91154 | 54.37587 | 35240 ft | 532 kts | 105° |
| 2026-04-25 23:29 | 39.89208 | 54.46884 | 35242 ft | 532 kts | 105° |
| 2026-04-25 23:29 | 39.87251 | 54.56141 | 35240 ft | 531 kts | 105° |
| 2026-04-25 23:30 | 39.85283 | 54.65371 | 35239 ft | 530 kts | 105° |
| 2026-04-25 23:30 | 39.83298 | 54.74650 | 35238 ft | 530 kts | 105° |
| 2026-04-25 23:31 | 39.81330 | 54.83850 | 35245 ft | 529 kts | 105° |
| 2026-04-25 23:31 | 39.79362 | 54.93063 | 35246 ft | 529 kts | 105° |
| 2026-04-25 23:32 | 39.77388 | 55.02264 | 35240 ft | 529 kts | 105° |
| 2026-04-25 23:32 | 39.75399 | 55.11488 | 35240 ft | 528 kts | 105° |
| 2026-04-25 23:33 | 39.73407 | 55.20686 | 35241 ft | 528 kts | 105° |
| 2026-04-25 23:33 | 39.71424 | 55.29798 | 35234 ft | 527 kts | 105° |
| 2026-04-25 23:34 | 39.69422 | 55.38960 | 35236 ft | 527 kts | 105° |
| 2026-04-25 23:34 | 39.67411 | 55.48096 | 35244 ft | 527 kts | 105° |
| 2026-04-25 23:35 | 39.65385 | 55.57244 | 35242 ft | 526 kts | 105° |
| 2026-04-25 23:35 | 39.63356 | 55.66374 | 35237 ft | 526 kts | 105° |
| 2026-04-25 23:36 | 39.61321 | 55.75497 | 35237 ft | 525 kts | 105° |
| 2026-04-25 23:36 | 39.59287 | 55.84580 | 35238 ft | 525 kts | 106° |
| 2026-04-25 23:37 | 39.57262 | 55.93600 | 35235 ft | 524 kts | 106° |
| 2026-04-25 23:37 | 39.55232 | 56.02685 | 35236 ft | 523 kts | 105° |
| 2026-04-25 23:38 | 39.53213 | 56.11709 | 35231 ft | 522 kts | 106° |
| 2026-04-25 23:38 | 39.51179 | 56.20755 | 35233 ft | 521 kts | 106° |
| 2026-04-25 23:39 | 39.49147 | 56.29748 | 35231 ft | 521 kts | 106° |
| 2026-04-25 23:39 | 39.47119 | 56.38685 | 35231 ft | 520 kts | 106° |
| 2026-04-25 23:40 | 39.45058 | 56.47731 | 35227 ft | 520 kts | 106° |
| 2026-04-25 23:40 | 39.43016 | 56.56649 | 35221 ft | 520 kts | 106° |
| 2026-04-25 23:41 | 39.40959 | 56.65607 | 35222 ft | 520 kts | 106° |
| 2026-04-25 23:41 | 39.38899 | 56.74540 | 35220 ft | 520 kts | 106° |
| 2026-04-25 23:42 | 39.37171 | 56.82012 | 35216 ft | 520 kts | 106° |
| 2026-04-25 23:42 | 39.34581 | 56.92351 | 35216 ft | 519 kts | 108° |
| 2026-04-25 23:43 | 39.32266 | 57.01172 | 35213 ft | 518 kts | 108° |
| 2026-04-25 23:43 | 39.29957 | 57.10026 | 35208 ft | 518 kts | 108° |
| 2026-04-25 23:44 | 39.28051 | 57.17371 | 35204 ft | 518 kts | 108° |
| 2026-04-25 23:44 | 39.25769 | 57.26174 | 35206 ft | 518 kts | 108° |
| 2026-04-25 23:45 | 39.23472 | 57.35007 | 35201 ft | 518 kts | 108° |
| 2026-04-25 23:45 | 39.21186 | 57.43761 | 35198 ft | 518 kts | 108° |
| 2026-04-25 23:46 | 39.18867 | 57.52605 | 35190 ft | 517 kts | 109° |
| 2026-04-25 23:46 | 39.16569 | 57.61338 | 35189 ft | 517 kts | 109° |
| 2026-04-25 23:47 | 39.14261 | 57.70082 | 35183 ft | 516 kts | 109° |
| 2026-04-25 23:47 | 39.11947 | 57.78817 | 35181 ft | 516 kts | 109° |
| 2026-04-25 23:48 | 39.09616 | 57.87587 | 35176 ft | 516 kts | 109° |
| 2026-04-25 23:48 | 39.07287 | 57.96315 | 35172 ft | 517 kts | 109° |
| 2026-04-25 23:49 | 39.04944 | 58.05070 | 35171 ft | 517 kts | 109° |
| 2026-04-25 23:49 | 39.02594 | 58.13819 | 35166 ft | 517 kts | 109° |
| 2026-04-25 23:50 | 39.00249 | 58.22515 | 35158 ft | 518 kts | 109° |
| 2026-04-25 23:50 | 38.97884 | 58.31263 | 35157 ft | 518 kts | 109° |
| 2026-04-25 23:51 | 38.95513 | 58.40002 | 35151 ft | 518 kts | 109° |
| 2026-04-25 23:51 | 38.93136 | 58.48728 | 35144 ft | 518 kts | 109° |
| 2026-04-25 23:52 | 38.90754 | 58.57447 | 35139 ft | 519 kts | 110° |
| 2026-04-25 23:52 | 38.88023 | 58.66001 | 35140 ft | 518 kts | 116° |
| 2026-04-25 23:53 | 38.84858 | 58.74275 | 35132 ft | 515 kts | 117° |
| 2026-04-25 23:53 | 38.81636 | 58.82467 | 35130 ft | 515 kts | 118° |
| 2026-04-25 23:54 | 38.78389 | 58.90688 | 35129 ft | 515 kts | 118° |
| 2026-04-25 23:54 | 38.75167 | 58.98845 | 35122 ft | 515 kts | 118° |
| 2026-04-25 23:55 | 38.71928 | 59.07038 | 35144 ft | 514 kts | 118° |
| 2026-04-25 23:55 | 38.68703 | 59.15178 | 35139 ft | 514 kts | 118° |
| 2026-04-25 23:56 | 38.65472 | 59.23310 | 35138 ft | 514 kts | 118° |
| 2026-04-25 23:56 | 38.62206 | 59.31507 | 35132 ft | 514 kts | 118° |
| 2026-04-25 23:57 | 38.58970 | 59.39638 | 35133 ft | 515 kts | 117° |
| 2026-04-25 23:57 | 38.55898 | 59.47883 | 35122 ft | 516 kts | 116° |
| 2026-04-25 23:58 | 38.52856 | 59.56227 | 35116 ft | 517 kts | 116° |
| 2026-04-25 23:58 | 38.49797 | 59.64521 | 35126 ft | 517 kts | 116° |
| 2026-04-25 23:59 | 38.46692 | 59.72850 | 35112 ft | 517 kts | 117° |
| 2026-04-25 23:59 | 38.43596 | 59.81111 | 35109 ft | 518 kts | 117° |
| 2026-04-26 00:00 | 38.40488 | 59.89388 | 35104 ft | 518 kts | 117° |
| 2026-04-26 00:00 | 38.37364 | 59.97687 | 35085 ft | 518 kts | 117° |
| 2026-04-26 00:01 | 38.34248 | 60.05940 | 35086 ft | 518 kts | 117° |
| 2026-04-26 00:01 | 38.31129 | 60.14179 | 35079 ft | 519 kts | 117° |
| 2026-04-26 00:02 | 38.27980 | 60.22474 | 35076 ft | 519 kts | 117° |
| 2026-04-26 00:02 | 38.24828 | 60.30755 | 35078 ft | 519 kts | 118° |
| 2026-04-26 00:03 | 38.21678 | 60.39007 | 35068 ft | 519 kts | 118° |
| 2026-04-26 00:03 | 38.18526 | 60.47243 | 35064 ft | 520 kts | 118° |
| 2026-04-26 00:04 | 38.15340 | 60.55545 | 35058 ft | 520 kts | 118° |
| 2026-04-26 00:04 | 38.12178 | 60.63763 | 35059 ft | 520 kts | 118° |
| 2026-04-26 00:05 | 38.08973 | 60.72068 | 35050 ft | 521 kts | 118° |
| 2026-04-26 00:05 | 38.05804 | 60.80259 | 35051 ft | 521 kts | 118° |
| 2026-04-26 00:06 | 38.02591 | 60.88543 | 35045 ft | 522 kts | 118° |
| 2026-04-26 00:06 | 37.99388 | 60.96776 | 35046 ft | 522 kts | 118° |
| 2026-04-26 00:07 | 37.96176 | 61.05013 | 35042 ft | 522 kts | 118° |
| 2026-04-26 00:07 | 37.92936 | 61.13299 | 35048 ft | 523 kts | 118° |
| 2026-04-26 00:08 | 37.89711 | 61.21525 | 35040 ft | 523 kts | 118° |
| 2026-04-26 00:08 | 37.86471 | 61.29766 | 35038 ft | 524 kts | 118° |
| 2026-04-26 00:09 | 37.83204 | 61.38055 | 35032 ft | 524 kts | 119° |
| 2026-04-26 00:09 | 37.79965 | 61.46250 | 35030 ft | 524 kts | 119° |
| 2026-04-26 00:10 | 37.76701 | 61.54488 | 35033 ft | 525 kts | 119° |
| 2026-04-26 00:10 | 37.73413 | 61.62764 | 35046 ft | 525 kts | 119° |
| 2026-04-26 00:11 | 37.70134 | 61.70996 | 35059 ft | 525 kts | 119° |
| 2026-04-26 00:11 | 37.66855 | 61.79207 | 35072 ft | 526 kts | 120° |
| 2026-04-26 00:12 | 37.63575 | 61.87487 | 35090 ft | 528 kts | 116° |
| 2026-04-26 00:12 | 37.61239 | 61.96263 | 35071 ft | 533 kts | 108° |
| 2026-04-26 00:13 | 37.59263 | 62.05361 | 35065 ft | 537 kts | 107° |
| 2026-04-26 00:13 | 37.57348 | 62.14425 | 35046 ft | 538 kts | 107° |
| 2026-04-26 00:14 | 37.55392 | 62.23547 | 35027 ft | 538 kts | 107° |
| 2026-04-26 00:14 | 37.53422 | 62.32609 | 35002 ft | 538 kts | 107° |
| 2026-04-26 00:15 | 37.51431 | 62.41703 | 34997 ft | 538 kts | 107° |
| 2026-04-26 00:15 | 37.49438 | 62.50767 | 34994 ft | 537 kts | 107° |
| 2026-04-26 00:16 | 37.47430 | 62.59871 | 34984 ft | 537 kts | 107° |
| 2026-04-26 00:16 | 37.45435 | 62.68880 | 34984 ft | 538 kts | 107° |
| 2026-04-26 00:17 | 37.43415 | 62.77962 | 34981 ft | 538 kts | 107° |
| 2026-04-26 00:17 | 37.41394 | 62.87014 | 34979 ft | 539 kts | 108° |
| 2026-04-26 00:18 | 37.39360 | 62.96088 | 34970 ft | 540 kts | 108° |
| 2026-04-26 00:18 | 37.37313 | 63.05186 | 34972 ft | 541 kts | 108° |
| 2026-04-26 00:19 | 37.35256 | 63.14290 | 34966 ft | 541 kts | 108° |
| 2026-04-26 00:19 | 37.33188 | 63.23416 | 34963 ft | 542 kts | 108° |
| 2026-04-26 00:20 | 37.31110 | 63.32543 | 34958 ft | 543 kts | 108° |
| 2026-04-26 00:20 | 37.29030 | 63.41645 | 34958 ft | 544 kts | 108° |
| 2026-04-26 00:21 | 37.26934 | 63.50777 | 34957 ft | 545 kts | 108° |
| 2026-04-26 00:21 | 37.24824 | 63.59941 | 34951 ft | 546 kts | 108° |
| 2026-04-26 00:22 | 37.22707 | 63.69095 | 34948 ft | 547 kts | 108° |
| 2026-04-26 00:22 | 37.20583 | 63.78247 | 34957 ft | 548 kts | 108° |
| 2026-04-26 00:23 | 37.18449 | 63.87404 | 34951 ft | 548 kts | 108° |
| 2026-04-26 00:23 | 37.16310 | 63.96550 | 34953 ft | 549 kts | 108° |
| 2026-04-26 00:24 | 37.14156 | 64.05725 | 34952 ft | 549 kts | 108° |
| 2026-04-26 00:24 | 37.11991 | 64.14911 | 34954 ft | 549 kts | 108° |
| 2026-04-26 00:25 | 37.09814 | 64.24112 | 34954 ft | 549 kts | 108° |
| 2026-04-26 00:25 | 37.07650 | 64.33220 | 34955 ft | 550 kts | 108° |
| 2026-04-26 00:26 | 37.05451 | 64.42439 | 34954 ft | 550 kts | 108° |
| 2026-04-26 00:26 | 37.03263 | 64.51577 | 34955 ft | 550 kts | 108° |
| 2026-04-26 00:27 | 37.01051 | 64.60783 | 34954 ft | 551 kts | 108° |
| 2026-04-26 00:27 | 36.98841 | 64.69950 | 34957 ft | 551 kts | 108° |
| 2026-04-26 00:28 | 36.96308 | 64.78970 | 34953 ft | 547 kts | 118° |
| 2026-04-26 00:28 | 36.92430 | 64.87094 | 34960 ft | 540 kts | 125° |
| 2026-04-26 00:29 | 36.88320 | 64.94913 | 34964 ft | 538 kts | 126° |
| 2026-04-26 00:29 | 36.84182 | 65.02650 | 34964 ft | 538 kts | 126° |
| 2026-04-26 00:30 | 36.80033 | 65.10425 | 34967 ft | 538 kts | 126° |
| 2026-04-26 00:30 | 36.75897 | 65.18191 | 34971 ft | 539 kts | 126° |
| 2026-04-26 00:31 | 36.72434 | 65.24690 | 34969 ft | 539 kts | 126° |
| 2026-04-26 00:31 | 36.67582 | 65.33776 | 34972 ft | 539 kts | 126° |
| 2026-04-26 00:32 | 36.63438 | 65.41514 | 34976 ft | 539 kts | 125° |
| 2026-04-26 00:32 | 36.57872 | 65.51880 | 34988 ft | 539 kts | 125° |
| 2026-04-26 00:33 | 36.53703 | 65.59624 | 34978 ft | 538 kts | 125° |
| 2026-04-26 00:33 | 36.49553 | 65.67314 | 34978 ft | 538 kts | 125° |
| 2026-04-26 00:34 | 36.45392 | 65.75007 | 34986 ft | 537 kts | 125° |
| 2026-04-26 00:34 | 36.41218 | 65.82705 | 34988 ft | 536 kts | 125° |
| 2026-04-26 00:35 | 36.37053 | 65.90372 | 34996 ft | 535 kts | 125° |
| 2026-04-26 00:35 | 36.32885 | 65.98026 | 35003 ft | 535 kts | 125° |
| 2026-04-26 00:36 | 36.28722 | 66.05654 | 35014 ft | 534 kts | 125° |
| 2026-04-26 00:36 | 36.24548 | 66.13287 | 35019 ft | 534 kts | 125° |
| 2026-04-26 00:37 | 36.20381 | 66.20889 | 35030 ft | 534 kts | 125° |
| 2026-04-26 00:37 | 36.16223 | 66.28446 | 35035 ft | 533 kts | 125° |
| 2026-04-26 00:38 | 36.12037 | 66.36032 | 35041 ft | 533 kts | 125° |
| 2026-04-26 00:38 | 36.07859 | 66.43591 | 35053 ft | 533 kts | 124° |
| 2026-04-26 00:39 | 36.03678 | 66.51139 | 35064 ft | 533 kts | 124° |
| 2026-04-26 00:39 | 35.99476 | 66.58712 | 35067 ft | 533 kts | 125° |
| 2026-04-26 00:40 | 35.95299 | 66.66220 | 35076 ft | 533 kts | 125° |
| 2026-04-26 00:40 | 35.91092 | 66.73764 | 35084 ft | 533 kts | 125° |
| 2026-04-26 00:41 | 35.86875 | 66.81313 | 35090 ft | 532 kts | 125° |
| 2026-04-26 00:41 | 35.82673 | 66.88818 | 35098 ft | 532 kts | 125° |
| 2026-04-26 00:42 | 35.78485 | 66.96289 | 35106 ft | 532 kts | 124° |
| 2026-04-26 00:42 | 35.74306 | 67.03772 | 35119 ft | 531 kts | 124° |
| 2026-04-26 00:43 | 35.70108 | 67.11285 | 35137 ft | 532 kts | 124° |
| 2026-04-26 00:43 | 35.65909 | 67.18776 | 35143 ft | 532 kts | 124° |
| 2026-04-26 00:44 | 35.61708 | 67.26251 | 35163 ft | 531 kts | 124° |
| 2026-04-26 00:44 | 35.57484 | 67.33750 | 35181 ft | 531 kts | 124° |
| 2026-04-26 00:45 | 35.53292 | 67.41175 | 35190 ft | 531 kts | 124° |
| 2026-04-26 00:45 | 35.49073 | 67.48633 | 35194 ft | 531 kts | 124° |
| 2026-04-26 00:46 | 35.44874 | 67.56039 | 35198 ft | 531 kts | 124° |
| 2026-04-26 00:46 | 35.40648 | 67.63479 | 35198 ft | 530 kts | 124° |
| 2026-04-26 00:47 | 35.36449 | 67.70858 | 35203 ft | 531 kts | 124° |
| 2026-04-26 00:47 | 35.32219 | 67.78272 | 35203 ft | 531 kts | 124° |
| 2026-04-26 00:48 | 35.27981 | 67.85687 | 35198 ft | 530 kts | 124° |
| 2026-04-26 00:48 | 35.23787 | 67.93140 | 35200 ft | 530 kts | 124° |
| 2026-04-26 00:49 | 35.19640 | 68.00540 | 35206 ft | 531 kts | 124° |
| 2026-04-26 00:49 | 35.15447 | 68.07993 | 35206 ft | 531 kts | 124° |
| 2026-04-26 00:50 | 35.11255 | 68.15422 | 35213 ft | 530 kts | 124° |
| 2026-04-26 00:50 | 35.07080 | 68.22798 | 35223 ft | 531 kts | 124° |
| 2026-04-26 00:51 | 35.02863 | 68.30168 | 35222 ft | 531 kts | 125° |
| 2026-04-26 00:51 | 34.98534 | 68.37506 | 35237 ft | 531 kts | 126° |
| 2026-04-26 00:52 | 34.94226 | 68.44775 | 35213 ft | 531 kts | 126° |
| 2026-04-26 00:52 | 34.89916 | 68.52065 | 35219 ft | 531 kts | 126° |
| 2026-04-26 00:53 | 34.85587 | 68.59389 | 35188 ft | 532 kts | 126° |
| 2026-04-26 00:53 | 34.81247 | 68.66719 | 35179 ft | 532 kts | 126° |
| 2026-04-26 00:54 | 34.76931 | 68.73993 | 35163 ft | 532 kts | 126° |
| 2026-04-26 00:54 | 34.72585 | 68.81302 | 35145 ft | 532 kts | 126° |
| 2026-04-26 00:55 | 34.68236 | 68.88601 | 35130 ft | 532 kts | 126° |
| 2026-04-26 00:55 | 34.63896 | 68.95867 | 35116 ft | 533 kts | 126° |
| 2026-04-26 00:56 | 34.59542 | 69.03144 | 35105 ft | 533 kts | 126° |
| 2026-04-26 00:56 | 34.55163 | 69.10426 | 35074 ft | 532 kts | 128° |
| 2026-04-26 00:57 | 34.49883 | 69.16613 | 35089 ft | 526 kts | 147° |
| 2026-04-26 00:57 | 34.43605 | 69.21031 | 35096 ft | 518 kts | 153° |
| 2026-04-26 00:58 | 34.37274 | 69.25017 | 35092 ft | 515 kts | 154° |
| 2026-04-26 00:58 | 34.30888 | 69.28971 | 35098 ft | 514 kts | 154° |
| 2026-04-26 00:59 | 34.24512 | 69.32945 | 35100 ft | 515 kts | 154° |
| 2026-04-26 00:59 | 34.18178 | 69.36912 | 35104 ft | 515 kts | 154° |
| 2026-04-26 01:00 | 34.11814 | 69.40896 | 35109 ft | 515 kts | 154° |
| 2026-04-26 01:00 | 34.05453 | 69.44882 | 35114 ft | 516 kts | 154° |
| 2026-04-26 01:01 | 33.99090 | 69.48874 | 35110 ft | 516 kts | 154° |
| 2026-04-26 01:01 | 33.92717 | 69.52865 | 35108 ft | 516 kts | 154° |
| 2026-04-26 01:02 | 33.86345 | 69.56845 | 35103 ft | 516 kts | 154° |
| 2026-04-26 01:02 | 33.80001 | 69.60801 | 35090 ft | 516 kts | 154° |
| 2026-04-26 01:03 | 33.73636 | 69.64763 | 35079 ft | 516 kts | 154° |
| 2026-04-26 01:03 | 33.67248 | 69.68732 | 35060 ft | 516 kts | 154° |
| 2026-04-26 01:04 | 33.60857 | 69.72697 | 35050 ft | 516 kts | 154° |
| 2026-04-26 01:04 | 33.54483 | 69.76641 | 35033 ft | 516 kts | 154° |
| 2026-04-26 01:05 | 33.48103 | 69.80619 | 35017 ft | 517 kts | 153° |
| 2026-04-26 01:05 | 33.41744 | 69.84672 | 35002 ft | 518 kts | 153° |
| 2026-04-26 01:06 | 33.35403 | 69.88717 | 34999 ft | 518 kts | 153° |
| 2026-04-26 01:06 | 33.29024 | 69.92764 | 34984 ft | 518 kts | 153° |
| 2026-04-26 01:07 | 33.22659 | 69.96785 | 34980 ft | 518 kts | 153° |
| 2026-04-26 01:07 | 33.16305 | 70.00791 | 34966 ft | 519 kts | 153° |
| 2026-04-26 01:08 | 33.09896 | 70.04825 | 34966 ft | 519 kts | 153° |
| 2026-04-26 01:08 | 33.03609 | 70.08995 | 34951 ft | 519 kts | 149° |
| 2026-04-26 01:09 | 32.97465 | 70.13531 | 34946 ft | 521 kts | 148° |
| 2026-04-26 01:09 | 32.91301 | 70.18086 | 34932 ft | 522 kts | 149° |
| 2026-04-26 01:10 | 32.85092 | 70.22590 | 34919 ft | 521 kts | 149° |
| 2026-04-26 01:10 | 32.78894 | 70.27048 | 34908 ft | 521 kts | 149° |
| 2026-04-26 01:11 | 32.72699 | 70.31488 | 34897 ft | 521 kts | 149° |
| 2026-04-26 01:11 | 32.66467 | 70.35948 | 34891 ft | 521 kts | 149° |
| 2026-04-26 01:12 | 32.60258 | 70.40390 | 34881 ft | 521 kts | 148° |
| 2026-04-26 01:12 | 32.54083 | 70.44814 | 34867 ft | 521 kts | 148° |
| 2026-04-26 01:13 | 32.47880 | 70.49253 | 34862 ft | 521 kts | 148° |
| 2026-04-26 01:13 | 32.41687 | 70.53677 | 34853 ft | 521 kts | 148° |
| 2026-04-26 01:14 | 32.35465 | 70.58114 | 34849 ft | 521 kts | 148° |
| 2026-04-26 01:14 | 32.29284 | 70.62513 | 34845 ft | 521 kts | 148° |
| 2026-04-26 01:15 | 32.23047 | 70.66945 | 34839 ft | 521 kts | 148° |
| 2026-04-26 01:15 | 32.16827 | 70.71357 | 34837 ft | 521 kts | 148° |
| 2026-04-26 01:16 | 32.10634 | 70.75743 | 34833 ft | 521 kts | 148° |
| 2026-04-26 01:16 | 32.04414 | 70.80141 | 34833 ft | 521 kts | 148° |
| 2026-04-26 01:17 | 31.98212 | 70.84519 | 34833 ft | 521 kts | 148° |
| 2026-04-26 01:17 | 31.92418 | 70.89629 | 34831 ft | 521 kts | 132° |
| 2026-04-26 01:18 | 31.90120 | 70.92916 | 34827 ft | 521 kts | 121° |
| 2026-04-26 01:18 | 31.88235 | 70.96582 | 34816 ft | 523 kts | 116° |
| 2026-04-26 01:18 | 31.84815 | 71.04143 | 34823 ft | 530 kts | 114° |
| 2026-04-26 01:19 | 31.81432 | 71.11880 | 34820 ft | 531 kts | 114° |
| 2026-04-26 01:19 | 31.78014 | 71.19564 | 34822 ft | 531 kts | 115° |
| 2026-04-26 01:20 | 31.74551 | 71.27239 | 34823 ft | 531 kts | 115° |
| 2026-04-26 01:20 | 31.71083 | 71.34879 | 34818 ft | 532 kts | 115° |
| 2026-04-26 01:21 | 31.67596 | 71.42551 | 34819 ft | 532 kts | 115° |
| 2026-04-26 01:21 | 31.64107 | 71.50215 | 34815 ft | 532 kts | 115° |
| 2026-04-26 01:22 | 31.61198 | 71.56595 | 34815 ft | 532 kts | 115° |
| 2026-04-26 01:22 | 31.57699 | 71.64256 | 34815 ft | 532 kts | 115° |
| 2026-04-26 01:23 | 31.53630 | 71.73137 | 34817 ft | 533 kts | 115° |
| 2026-04-26 01:23 | 31.50706 | 71.79504 | 34816 ft | 533 kts | 115° |
| 2026-04-26 01:24 | 31.47187 | 71.87155 | 34815 ft | 533 kts | 115° |
| 2026-04-26 01:24 | 31.43661 | 71.94805 | 34813 ft | 534 kts | 115° |
| 2026-04-26 01:25 | 31.40134 | 72.02443 | 34814 ft | 534 kts | 115° |
| 2026-04-26 01:25 | 31.36601 | 72.10077 | 34816 ft | 534 kts | 115° |
| 2026-04-26 01:26 | 31.33068 | 72.17696 | 34813 ft | 534 kts | 116° |
| 2026-04-26 01:26 | 31.29519 | 72.25335 | 34815 ft | 534 kts | 116° |
| 2026-04-26 01:27 | 31.25677 | 72.32788 | 34819 ft | 536 kts | 122° |
| 2026-04-26 01:27 | 31.21446 | 72.39923 | 34814 ft | 534 kts | 123° |
| 2026-04-26 01:28 | 31.17151 | 72.47004 | 34815 ft | 533 kts | 123° |
| 2026-04-26 01:28 | 31.12853 | 72.54073 | 34815 ft | 533 kts | 123° |
| 2026-04-26 01:29 | 31.08586 | 72.61096 | 34815 ft | 533 kts | 123° |
| 2026-04-26 01:29 | 31.04296 | 72.68154 | 34819 ft | 533 kts | 123° |
| 2026-04-26 01:30 | 30.99990 | 72.75230 | 34819 ft | 534 kts | 123° |
| 2026-04-26 01:30 | 30.95706 | 72.82255 | 34816 ft | 534 kts | 123° |
| 2026-04-26 01:31 | 30.91405 | 72.89296 | 34818 ft | 534 kts | 123° |
| 2026-04-26 01:31 | 30.87091 | 72.96344 | 34819 ft | 534 kts | 123° |
| 2026-04-26 01:32 | 30.82793 | 73.03354 | 34818 ft | 534 kts | 123° |
| 2026-04-26 01:32 | 30.78468 | 73.10395 | 34821 ft | 534 kts | 123° |
| 2026-04-26 01:33 | 30.74153 | 73.17408 | 34821 ft | 534 kts | 123° |
| 2026-04-26 01:33 | 30.69831 | 73.24420 | 34821 ft | 534 kts | 123° |
| 2026-04-26 01:34 | 30.65509 | 73.31423 | 34816 ft | 534 kts | 123° |
| 2026-04-26 01:34 | 30.61159 | 73.38460 | 34816 ft | 534 kts | 123° |
| 2026-04-26 01:35 | 30.56832 | 73.45447 | 34815 ft | 534 kts | 123° |
| 2026-04-26 01:35 | 30.52507 | 73.52419 | 34815 ft | 534 kts | 123° |
| 2026-04-26 01:36 | 30.48141 | 73.59444 | 34812 ft | 534 kts | 123° |
| 2026-04-26 01:37 | 30.41627 | 73.69904 | 34810 ft | 533 kts | 123° |
| 2026-04-26 01:37 | 30.37278 | 73.76871 | 34808 ft | 533 kts | 123° |
| 2026-04-26 01:38 | 30.32951 | 73.83792 | 34809 ft | 533 kts | 123° |
| 2026-04-26 01:38 | 30.28583 | 73.90768 | 34803 ft | 533 kts | 123° |
| 2026-04-26 01:39 | 30.24257 | 73.97665 | 34805 ft | 533 kts | 123° |
| 2026-04-26 01:39 | 30.19881 | 74.04646 | 34803 ft | 533 kts | 123° |
| 2026-04-26 01:40 | 30.15557 | 74.11543 | 34799 ft | 533 kts | 123° |
| 2026-04-26 01:40 | 30.11181 | 74.18510 | 34798 ft | 534 kts | 123° |
| 2026-04-26 01:41 | 30.06826 | 74.25429 | 34800 ft | 534 kts | 123° |
| 2026-04-26 01:41 | 30.02471 | 74.32336 | 34798 ft | 534 kts | 123° |
| 2026-04-26 01:42 | 29.98095 | 74.39263 | 34798 ft | 534 kts | 123° |
| 2026-04-26 01:42 | 29.93726 | 74.46168 | 34797 ft | 534 kts | 123° |
| 2026-04-26 01:43 | 29.89335 | 74.53096 | 34795 ft | 534 kts | 123° |
| 2026-04-26 01:43 | 29.84937 | 74.60024 | 34798 ft | 534 kts | 123° |
| 2026-04-26 01:44 | 29.80552 | 74.66920 | 34795 ft | 535 kts | 123° |
| 2026-04-26 01:44 | 29.76155 | 74.73822 | 34792 ft | 535 kts | 123° |
| 2026-04-26 01:45 | 29.71773 | 74.80691 | 34790 ft | 535 kts | 123° |
| 2026-04-26 01:45 | 29.67361 | 74.87593 | 34789 ft | 534 kts | 123° |
| 2026-04-26 01:46 | 29.62945 | 74.94488 | 34790 ft | 534 kts | 123° |
| 2026-04-26 01:46 | 29.58552 | 75.01338 | 34787 ft | 533 kts | 123° |
| 2026-04-26 01:47 | 29.54163 | 75.08171 | 34788 ft | 533 kts | 123° |
| 2026-04-26 01:47 | 29.49745 | 75.15036 | 34793 ft | 532 kts | 123° |
| 2026-04-26 01:48 | 29.45355 | 75.21847 | 34792 ft | 531 kts | 123° |
| 2026-04-26 01:48 | 29.40963 | 75.28650 | 34799 ft | 531 kts | 123° |
| 2026-04-26 01:49 | 29.36562 | 75.35456 | 34797 ft | 530 kts | 123° |
| 2026-04-26 01:49 | 29.32158 | 75.42257 | 34800 ft | 530 kts | 124° |
| 2026-04-26 01:50 | 29.27758 | 75.48988 | 34800 ft | 530 kts | 124° |
| 2026-04-26 01:50 | 29.23351 | 75.55701 | 34800 ft | 529 kts | 124° |
| 2026-04-26 01:51 | 29.18897 | 75.62479 | 34804 ft | 529 kts | 124° |
| 2026-04-26 01:51 | 29.14502 | 75.69163 | 34807 ft | 528 kts | 124° |
| 2026-04-26 01:52 | 29.10078 | 75.75883 | 34809 ft | 528 kts | 124° |
| 2026-04-26 01:52 | 29.05653 | 75.82593 | 34806 ft | 527 kts | 124° |
| 2026-04-26 01:53 | 29.01243 | 75.89268 | 34808 ft | 527 kts | 124° |
| 2026-04-26 01:53 | 28.96817 | 75.95952 | 34810 ft | 527 kts | 124° |
| 2026-04-26 01:54 | 28.92399 | 76.02615 | 34814 ft | 527 kts | 124° |
| 2026-04-26 01:54 | 28.87992 | 76.09262 | 34812 ft | 527 kts | 124° |
| 2026-04-26 01:55 | 28.83561 | 76.15932 | 34812 ft | 527 kts | 124° |
| 2026-04-26 01:55 | 28.79134 | 76.22581 | 34816 ft | 527 kts | 124° |
| 2026-04-26 01:56 | 28.74695 | 76.29238 | 34819 ft | 527 kts | 124° |
| 2026-04-26 01:56 | 28.70269 | 76.35865 | 34817 ft | 527 kts | 124° |
| 2026-04-26 01:57 | 28.65803 | 76.42541 | 34818 ft | 527 kts | 124° |
| 2026-04-26 01:57 | 28.61359 | 76.49174 | 34822 ft | 527 kts | 124° |
| 2026-04-26 01:58 | 28.56914 | 76.55797 | 34826 ft | 528 kts | 124° |
| 2026-04-26 01:58 | 28.52467 | 76.62413 | 34824 ft | 527 kts | 123° |
| 2026-04-26 01:59 | 28.47987 | 76.69068 | 34822 ft | 528 kts | 123° |
| 2026-04-26 01:59 | 28.43535 | 76.75672 | 34821 ft | 528 kts | 123° |
| 2026-04-26 02:00 | 28.39043 | 76.82323 | 34820 ft | 529 kts | 123° |
| 2026-04-26 02:00 | 28.34586 | 76.88912 | 34821 ft | 529 kts | 123° |
| 2026-04-26 02:01 | 28.30082 | 76.95560 | 34817 ft | 529 kts | 123° |
| 2026-04-26 02:01 | 28.25620 | 77.02136 | 34814 ft | 529 kts | 123° |
| 2026-04-26 02:02 | 28.21098 | 77.08791 | 34814 ft | 530 kts | 123° |
| 2026-04-26 02:02 | 28.16611 | 77.15384 | 34804 ft | 530 kts | 123° |
| 2026-04-26 02:03 | 28.12103 | 77.21998 | 34795 ft | 530 kts | 123° |
| 2026-04-26 02:03 | 28.07592 | 77.28605 | 34788 ft | 531 kts | 123° |
| 2026-04-26 02:04 | 28.03053 | 77.35244 | 34784 ft | 531 kts | 123° |
| 2026-04-26 02:04 | 27.98551 | 77.41819 | 34782 ft | 531 kts | 123° |
| 2026-04-26 02:05 | 27.94010 | 77.48438 | 34778 ft | 531 kts | 123° |
| 2026-04-26 02:05 | 27.89498 | 77.55006 | 34773 ft | 531 kts | 123° |
| 2026-04-26 02:06 | 27.84954 | 77.61612 | 34767 ft | 531 kts | 123° |
| 2026-04-26 02:06 | 27.80432 | 77.68174 | 34762 ft | 531 kts | 123° |
| 2026-04-26 02:07 | 27.76621 | 77.73698 | 34759 ft | 531 kts | 123° |
| 2026-04-26 02:07 | 27.72107 | 77.80231 | 34757 ft | 531 kts | 123° |
| 2026-04-26 02:08 | 27.67539 | 77.86834 | 34754 ft | 532 kts | 123° |
| 2026-04-26 02:08 | 27.62237 | 77.94485 | 34748 ft | 532 kts | 123° |
| 2026-04-26 02:09 | 27.58437 | 77.99958 | 34742 ft | 533 kts | 123° |
| 2026-04-26 02:09 | 27.53849 | 78.06558 | 34741 ft | 533 kts | 123° |
| 2026-04-26 02:10 | 27.49266 | 78.13141 | 34738 ft | 533 kts | 123° |
| 2026-04-26 02:10 | 27.44725 | 78.19653 | 34738 ft | 533 kts | 123° |
| 2026-04-26 02:11 | 27.40140 | 78.26220 | 34735 ft | 533 kts | 123° |
| 2026-04-26 02:11 | 27.35540 | 78.32800 | 34733 ft | 533 kts | 123° |
| 2026-04-26 02:12 | 27.30957 | 78.39342 | 34744 ft | 532 kts | 123° |
| 2026-04-26 02:12 | 27.26401 | 78.45838 | 34743 ft | 532 kts | 123° |
| 2026-04-26 02:13 | 27.21801 | 78.52387 | 34737 ft | 532 kts | 123° |
| 2026-04-26 02:13 | 27.17210 | 78.58913 | 34742 ft | 531 kts | 123° |
| 2026-04-26 02:14 | 27.12632 | 78.65410 | 34736 ft | 531 kts | 124° |
| 2026-04-26 02:14 | 27.08068 | 78.71878 | 34735 ft | 530 kts | 124° |
| 2026-04-26 02:15 | 27.03471 | 78.78384 | 34739 ft | 529 kts | 124° |
| 2026-04-26 02:15 | 26.98915 | 78.84817 | 34744 ft | 529 kts | 124° |
| 2026-04-26 02:16 | 26.94331 | 78.91278 | 34745 ft | 528 kts | 124° |
| 2026-04-26 02:16 | 26.89752 | 78.97728 | 34750 ft | 527 kts | 124° |
| 2026-04-26 02:17 | 26.85204 | 79.04131 | 34750 ft | 527 kts | 124° |
| 2026-04-26 02:17 | 26.80650 | 79.10530 | 34754 ft | 527 kts | 125° |
| 2026-04-26 02:18 | 26.76079 | 79.16949 | 34757 ft | 526 kts | 125° |
| 2026-04-26 02:18 | 26.71526 | 79.23334 | 34757 ft | 526 kts | 125° |
| 2026-04-26 02:19 | 26.66944 | 79.29747 | 34756 ft | 526 kts | 125° |
| 2026-04-26 02:19 | 26.62377 | 79.36127 | 34757 ft | 527 kts | 126° |
| 2026-04-26 02:20 | 26.57774 | 79.42548 | 34758 ft | 527 kts | 126° |
| 2026-04-26 02:20 | 26.53212 | 79.48903 | 34764 ft | 527 kts | 126° |
| 2026-04-26 02:21 | 26.48603 | 79.55315 | 34758 ft | 528 kts | 126° |
| 2026-04-26 02:21 | 26.44019 | 79.61684 | 34762 ft | 528 kts | 127° |
| 2026-04-26 02:22 | 26.39425 | 79.68056 | 34759 ft | 528 kts | 127° |
| 2026-04-26 02:22 | 26.34825 | 79.74428 | 34757 ft | 528 kts | 127° |
| 2026-04-26 02:23 | 26.30212 | 79.80808 | 34756 ft | 527 kts | 127° |
| 2026-04-26 02:23 | 26.25608 | 79.87167 | 34759 ft | 526 kts | 127° |
| 2026-04-26 02:24 | 26.21036 | 79.93472 | 34756 ft | 526 kts | 127° |
| 2026-04-26 02:24 | 26.16429 | 79.99818 | 34754 ft | 525 kts | 127° |
| 2026-04-26 02:25 | 26.11841 | 80.06129 | 34754 ft | 524 kts | 128° |
| 2026-04-26 02:25 | 26.07242 | 80.12446 | 34751 ft | 524 kts | 128° |
| 2026-04-26 02:26 | 26.02672 | 80.18713 | 34754 ft | 524 kts | 128° |
| 2026-04-26 02:26 | 25.98083 | 80.25000 | 34752 ft | 524 kts | 128° |
| 2026-04-26 02:27 | 25.93552 | 80.31339 | 34754 ft | 523 kts | 126° |
| 2026-04-26 02:27 | 25.89131 | 80.37818 | 34747 ft | 524 kts | 126° |
| 2026-04-26 02:28 | 25.84750 | 80.44237 | 34750 ft | 524 kts | 126° |
| 2026-04-26 02:28 | 25.80303 | 80.50692 | 34747 ft | 523 kts | 126° |
| 2026-04-26 02:29 | 25.75899 | 80.57054 | 34742 ft | 523 kts | 126° |
| 2026-04-26 02:29 | 25.71471 | 80.63437 | 34741 ft | 523 kts | 126° |
| 2026-04-26 02:30 | 25.67028 | 80.69833 | 34745 ft | 522 kts | 126° |
| 2026-04-26 02:30 | 25.62593 | 80.76212 | 34744 ft | 522 kts | 126° |
| 2026-04-26 02:31 | 25.58173 | 80.82560 | 34745 ft | 521 kts | 126° |
| 2026-04-26 02:31 | 25.53735 | 80.88925 | 34743 ft | 521 kts | 126° |
| 2026-04-26 02:32 | 25.49325 | 80.95242 | 34745 ft | 520 kts | 126° |
| 2026-04-26 02:32 | 25.44884 | 81.01595 | 34741 ft | 520 kts | 126° |
| 2026-04-26 02:33 | 25.41201 | 81.06856 | 34741 ft | 520 kts | 126° |